AAL287 KDCA-KRDU
Flight info
| Callsign | AAL287 |
|---|---|
| Flight time | 0h 45m |
| Altitude | 26000 |
| Route | JDUBB4 MELTN ALDAN4 |
| Aircraft | A321/M-SDE3FGHIRWY/LB1 |
Departure
| Time | 2026-04-26 21:09 |
|---|---|
| Airport | Ronald Reagan Washington National Airport (KDCA) |
Arrival
| Time | 2026-04-26 21:55 |
|---|---|
| Airport | Raleigh-Durham International Airport (KRDU) |
| Time | Latitude | Longitude | Altitude | Speed | Heading |
|---|---|---|---|---|---|
| 2026-04-26 20:41 | 38.85572 | -77.04166 | 23 ft | 0 kts | 317° |
| 2026-04-26 20:57 | 38.85570 | -77.04164 | 23 ft | 2 kts | 318° |
| 2026-04-26 20:57 | 38.85556 | -77.04155 | 23 ft | 2 kts | 348° |
| 2026-04-26 20:57 | 38.85542 | -77.04154 | 23 ft | 2 kts | 10° |
| 2026-04-26 20:58 | 38.85528 | -77.04160 | 24 ft | 2 kts | 33° |
| 2026-04-26 20:58 | 38.85517 | -77.04173 | 24 ft | 2 kts | 56° |
| 2026-04-26 20:58 | 38.85511 | -77.04190 | 25 ft | 2 kts | 77° |
| 2026-04-26 20:58 | 38.85508 | -77.04205 | 25 ft | 0 kts | 72° |
| 2026-04-26 20:59 | 38.85507 | -77.04208 | 25 ft | 0 kts | 71° |
| 2026-04-26 21:01 | 38.85510 | -77.04195 | 25 ft | 3 kts | 72° |
| 2026-04-26 21:01 | 38.85522 | -77.04150 | 24 ft | 7 kts | 72° |
| 2026-04-26 21:02 | 38.85541 | -77.04071 | 22 ft | 11 kts | 73° |
| 2026-04-26 21:02 | 38.85555 | -77.03979 | 20 ft | 9 kts | 109° |
| 2026-04-26 21:02 | 38.85491 | -77.03950 | 20 ft | 10 kts | 177° |
| 2026-04-26 21:02 | 38.85411 | -77.03942 | 20 ft | 12 kts | 175° |
| 2026-04-26 21:03 | 38.85322 | -77.03933 | 20 ft | 13 kts | 175° |
| 2026-04-26 21:03 | 38.85229 | -77.03924 | 21 ft | 13 kts | 175° |
| 2026-04-26 21:03 | 38.85133 | -77.03915 | 21 ft | 14 kts | 175° |
| 2026-04-26 21:03 | 38.85022 | -77.03902 | 19 ft | 16 kts | 176° |
| 2026-04-26 21:04 | 38.84904 | -77.03891 | 19 ft | 17 kts | 176° |
| 2026-04-26 21:04 | 38.84782 | -77.03879 | 19 ft | 17 kts | 175° |
| 2026-04-26 21:04 | 38.84667 | -77.03868 | 18 ft | 17 kts | 175° |
| 2026-04-26 21:04 | 38.84541 | -77.03855 | 15 ft | 19 kts | 175° |
| 2026-04-26 21:05 | 38.84416 | -77.03843 | 15 ft | 14 kts | 176° |
| 2026-04-26 21:05 | 38.84312 | -77.03833 | 14 ft | 15 kts | 175° |
| 2026-04-26 21:05 | 38.84224 | -77.03815 | 13 ft | 10 kts | 153° |
| 2026-04-26 21:05 | 38.84208 | -77.03798 | 12 ft | 0 kts | 131° |
| 2026-04-26 21:07 | 38.84202 | -77.03790 | 12 ft | 2 kts | 129° |
| 2026-04-26 21:08 | 38.84181 | -77.03753 | 12 ft | 9 kts | 124° |
| 2026-04-26 21:08 | 38.84170 | -77.03692 | 12 ft | 4 kts | 61° |
| 2026-04-26 21:08 | 38.84208 | -77.03680 | 12 ft | 3 kts | 354° |
| 2026-04-26 21:08 | 38.84218 | -77.03682 | 13 ft | 7 kts | 354° |
| 2026-04-26 21:09 | 38.84530 | -77.03712 | 16 ft | 90 kts | 355° |
| 2026-04-26 21:09 | 38.85437 | -77.03806 | 27 ft | 167 kts | 354° |
| 2026-04-26 21:09 | 38.86649 | -77.03943 | 747 ft | 180 kts | 356° |
| 2026-04-26 21:09 | 38.87834 | -77.04380 | 1832 ft | 185 kts | 332° |
| 2026-04-26 21:10 | 38.88777 | -77.05363 | 2672 ft | 179 kts | 322° |
| 2026-04-26 21:10 | 38.89698 | -77.06508 | 3049 ft | 195 kts | 317° |
| 2026-04-26 21:10 | 38.90536 | -77.07983 | 3404 ft | 215 kts | 304° |
| 2026-04-26 21:10 | 38.91278 | -77.09726 | 3714 ft | 235 kts | 306° |
| 2026-04-26 21:11 | 38.92389 | -77.11323 | 4080 ft | 248 kts | 326° |
| 2026-04-26 21:11 | 38.93867 | -77.12554 | 4643 ft | 258 kts | 332° |
| 2026-04-26 21:11 | 38.95417 | -77.13750 | 5438 ft | 261 kts | 330° |
| 2026-04-26 21:11 | 38.96668 | -77.15419 | 6203 ft | 272 kts | 303° |
| 2026-04-26 21:12 | 38.97237 | -77.17729 | 7000 ft | 279 kts | 285° |
| 2026-04-26 21:12 | 38.97581 | -77.20210 | 7765 ft | 282 kts | 284° |
| 2026-04-26 21:12 | 38.97919 | -77.22659 | 8494 ft | 284 kts | 284° |
| 2026-04-26 21:12 | 38.98030 | -77.25198 | 9175 ft | 294 kts | 264° |
| 2026-04-26 21:13 | 38.97205 | -77.27634 | 9867 ft | 305 kts | 235° |
| 2026-04-26 21:13 | 38.95562 | -77.29359 | 10482 ft | 314 kts | 207° |
| 2026-04-26 21:13 | 38.93497 | -77.30428 | 10823 ft | 330 kts | 203° |
| 2026-04-26 21:13 | 38.91345 | -77.31600 | 11117 ft | 346 kts | 205° |
| 2026-04-26 21:14 | 38.89079 | -77.32877 | 11407 ft | 362 kts | 205° |
| 2026-04-26 21:14 | 38.86738 | -77.34192 | 11811 ft | 373 kts | 205° |
| 2026-04-26 21:14 | 38.84329 | -77.35530 | 12370 ft | 378 kts | 205° |
| 2026-04-26 21:14 | 38.81933 | -77.36848 | 12942 ft | 382 kts | 205° |
| 2026-04-26 21:15 | 38.79470 | -77.38200 | 13508 ft | 386 kts | 205° |
| 2026-04-26 21:15 | 38.76970 | -77.39566 | 14066 ft | 391 kts | 205° |
| 2026-04-26 21:15 | 38.74478 | -77.40926 | 14670 ft | 393 kts | 205° |
| 2026-04-26 21:15 | 38.71979 | -77.42287 | 15279 ft | 395 kts | 205° |
| 2026-04-26 21:16 | 38.69430 | -77.43675 | 15863 ft | 397 kts | 205° |
| 2026-04-26 21:16 | 38.66895 | -77.45054 | 16409 ft | 400 kts | 205° |
| 2026-04-26 21:16 | 38.64304 | -77.46462 | 16977 ft | 403 kts | 205° |
| 2026-04-26 21:16 | 38.61737 | -77.47855 | 17515 ft | 405 kts | 205° |
| 2026-04-26 21:17 | 38.59118 | -77.49277 | 18052 ft | 408 kts | 205° |
| 2026-04-26 21:17 | 38.56510 | -77.50693 | 18572 ft | 411 kts | 205° |
| 2026-04-26 21:17 | 38.53872 | -77.52126 | 19085 ft | 413 kts | 205° |
| 2026-04-26 21:17 | 38.51237 | -77.53553 | 19585 ft | 416 kts | 205° |
| 2026-04-26 21:18 | 38.48563 | -77.55001 | 20086 ft | 418 kts | 205° |
| 2026-04-26 21:18 | 38.45872 | -77.56455 | 20568 ft | 421 kts | 205° |
| 2026-04-26 21:18 | 38.43178 | -77.57909 | 21008 ft | 423 kts | 205° |
| 2026-04-26 21:18 | 38.40465 | -77.59372 | 21136 ft | 424 kts | 205° |
| 2026-04-26 21:19 | 38.37771 | -77.60824 | 21179 ft | 426 kts | 205° |
| 2026-04-26 21:19 | 38.35019 | -77.62305 | 21579 ft | 429 kts | 205° |
| 2026-04-26 21:19 | 38.32301 | -77.63808 | 22134 ft | 428 kts | 207° |
| 2026-04-26 21:19 | 38.29620 | -77.65535 | 22602 ft | 429 kts | 210° |
| 2026-04-26 21:20 | 38.27080 | -77.67477 | 23063 ft | 430 kts | 214° |
| 2026-04-26 21:20 | 38.24593 | -77.69600 | 23645 ft | 427 kts | 216° |
| 2026-04-26 21:20 | 38.22175 | -77.71693 | 24205 ft | 425 kts | 216° |
| 2026-04-26 21:20 | 38.19733 | -77.73807 | 24731 ft | 424 kts | 216° |
| 2026-04-26 21:21 | 38.17288 | -77.75918 | 25156 ft | 425 kts | 216° |
| 2026-04-26 21:21 | 38.14854 | -77.78011 | 25540 ft | 427 kts | 216° |
| 2026-04-26 21:21 | 38.12360 | -77.80151 | 25935 ft | 429 kts | 216° |
| 2026-04-26 21:21 | 38.09886 | -77.82272 | 26124 ft | 430 kts | 216° |
| 2026-04-26 21:22 | 38.07426 | -77.84377 | 26128 ft | 430 kts | 216° |
| 2026-04-26 21:22 | 38.04948 | -77.86497 | 26129 ft | 430 kts | 216° |
| 2026-04-26 21:22 | 38.02454 | -77.88629 | 26130 ft | 430 kts | 216° |
| 2026-04-26 21:23 | 37.97495 | -77.92864 | 26133 ft | 430 kts | 216° |
| 2026-04-26 21:23 | 37.95032 | -77.94965 | 26128 ft | 430 kts | 216° |
| 2026-04-26 21:23 | 37.92535 | -77.97092 | 26127 ft | 430 kts | 215° |
| 2026-04-26 21:23 | 37.90060 | -77.99200 | 26125 ft | 430 kts | 215° |
| 2026-04-26 21:24 | 37.87597 | -78.01294 | 26123 ft | 430 kts | 215° |
| 2026-04-26 21:24 | 37.85111 | -78.03405 | 26119 ft | 430 kts | 215° |
| 2026-04-26 21:24 | 37.82639 | -78.05503 | 26118 ft | 430 kts | 215° |
| 2026-04-26 21:24 | 37.80160 | -78.07605 | 26118 ft | 430 kts | 215° |
| 2026-04-26 21:25 | 37.77655 | -78.09727 | 26116 ft | 430 kts | 215° |
| 2026-04-26 21:25 | 37.75192 | -78.11814 | 26116 ft | 430 kts | 215° |
| 2026-04-26 21:25 | 37.72721 | -78.13905 | 26111 ft | 430 kts | 215° |
| 2026-04-26 21:25 | 37.70219 | -78.16020 | 26114 ft | 430 kts | 216° |
| 2026-04-26 21:26 | 37.67730 | -78.18123 | 26110 ft | 430 kts | 215° |
| 2026-04-26 21:26 | 37.65241 | -78.20226 | 26107 ft | 430 kts | 215° |
| 2026-04-26 21:26 | 37.62789 | -78.22294 | 26105 ft | 430 kts | 215° |
| 2026-04-26 21:26 | 37.60307 | -78.24385 | 26103 ft | 430 kts | 215° |
| 2026-04-26 21:27 | 37.57801 | -78.26497 | 26100 ft | 429 kts | 215° |
| 2026-04-26 21:27 | 37.55332 | -78.28573 | 26105 ft | 429 kts | 215° |
| 2026-04-26 21:27 | 37.52852 | -78.30658 | 26105 ft | 429 kts | 215° |
| 2026-04-26 21:27 | 37.50375 | -78.32739 | 26102 ft | 429 kts | 215° |
| 2026-04-26 21:28 | 37.47900 | -78.34815 | 26102 ft | 429 kts | 215° |
| 2026-04-26 21:28 | 37.45392 | -78.36919 | 26106 ft | 429 kts | 215° |
| 2026-04-26 21:28 | 37.42928 | -78.38984 | 26106 ft | 429 kts | 215° |
| 2026-04-26 21:28 | 37.40425 | -78.41080 | 26103 ft | 429 kts | 215° |
| 2026-04-26 21:29 | 37.37966 | -78.43136 | 26105 ft | 430 kts | 215° |
| 2026-04-26 21:29 | 37.35488 | -78.45207 | 26106 ft | 429 kts | 215° |
| 2026-04-26 21:29 | 37.33001 | -78.47285 | 26104 ft | 429 kts | 215° |
| 2026-04-26 21:29 | 37.30502 | -78.49372 | 26102 ft | 429 kts | 215° |
| 2026-04-26 21:30 | 37.28023 | -78.51440 | 26101 ft | 429 kts | 215° |
| 2026-04-26 21:30 | 37.25552 | -78.53497 | 26098 ft | 429 kts | 215° |
| 2026-04-26 21:30 | 37.23063 | -78.55568 | 26087 ft | 429 kts | 215° |
| 2026-04-26 21:30 | 37.20568 | -78.57642 | 25838 ft | 429 kts | 215° |
| 2026-04-26 21:31 | 37.18092 | -78.59702 | 25572 ft | 426 kts | 215° |
| 2026-04-26 21:31 | 37.15621 | -78.61758 | 25303 ft | 424 kts | 215° |
| 2026-04-26 21:31 | 37.13200 | -78.63769 | 25036 ft | 421 kts | 215° |
| 2026-04-26 21:31 | 37.10753 | -78.65802 | 24767 ft | 420 kts | 214° |
| 2026-04-26 21:32 | 37.08315 | -78.67824 | 24501 ft | 420 kts | 214° |
| 2026-04-26 21:32 | 37.05870 | -78.69850 | 24168 ft | 421 kts | 214° |
| 2026-04-26 21:32 | 37.03436 | -78.71867 | 23700 ft | 422 kts | 214° |
| 2026-04-26 21:32 | 37.00996 | -78.73888 | 23100 ft | 423 kts | 213° |
| 2026-04-26 21:33 | 36.98539 | -78.75919 | 22458 ft | 423 kts | 213° |
| 2026-04-26 21:33 | 36.96084 | -78.77946 | 21971 ft | 419 kts | 213° |
| 2026-04-26 21:33 | 36.93669 | -78.79936 | 21469 ft | 417 kts | 214° |
| 2026-04-26 21:33 | 36.91257 | -78.81924 | 20957 ft | 414 kts | 214° |
| 2026-04-26 21:34 | 36.88869 | -78.83892 | 20436 ft | 412 kts | 214° |
| 2026-04-26 21:34 | 36.86485 | -78.85857 | 19933 ft | 411 kts | 214° |
| 2026-04-26 21:34 | 36.84120 | -78.87803 | 19427 ft | 409 kts | 214° |
| 2026-04-26 21:34 | 36.81740 | -78.89761 | 18918 ft | 407 kts | 213° |
| 2026-04-26 21:35 | 36.79412 | -78.91676 | 18424 ft | 405 kts | 213° |
| 2026-04-26 21:35 | 36.77056 | -78.93610 | 17910 ft | 404 kts | 213° |
| 2026-04-26 21:35 | 36.74712 | -78.95533 | 17399 ft | 403 kts | 213° |
| 2026-04-26 21:35 | 36.72384 | -78.97441 | 16883 ft | 402 kts | 213° |
| 2026-04-26 21:36 | 36.70034 | -78.99358 | 16371 ft | 400 kts | 212° |
| 2026-04-26 21:36 | 36.68393 | -79.00411 | 16003 ft | 399 kts | 199° |
| 2026-04-26 21:36 | 36.64815 | -79.00843 | 15349 ft | 390 kts | 169° |
| 2026-04-26 21:36 | 36.62162 | -79.00098 | 14875 ft | 386 kts | 163° |
| 2026-04-26 21:37 | 36.59744 | -78.99332 | 14415 ft | 385 kts | 163° |
| 2026-04-26 21:37 | 36.57158 | -78.98522 | 13922 ft | 383 kts | 163° |
| 2026-04-26 21:37 | 36.54558 | -78.97732 | 13439 ft | 381 kts | 164° |
| 2026-04-26 21:37 | 36.51994 | -78.96971 | 12958 ft | 380 kts | 164° |
| 2026-04-26 21:38 | 36.49439 | -78.96223 | 12487 ft | 379 kts | 164° |
| 2026-04-26 21:38 | 36.46864 | -78.95477 | 12150 ft | 371 kts | 165° |
| 2026-04-26 21:38 | 36.44413 | -78.94771 | 11978 ft | 360 kts | 164° |
| 2026-04-26 21:38 | 36.41985 | -78.94070 | 11910 ft | 346 kts | 164° |
| 2026-04-26 21:39 | 36.39696 | -78.93411 | 11926 ft | 330 kts | 164° |
| 2026-04-26 21:39 | 36.37530 | -78.92787 | 11944 ft | 316 kts | 164° |
| 2026-04-26 21:39 | 36.35387 | -78.92168 | 11969 ft | 315 kts | 164° |
| 2026-04-26 21:39 | 36.33229 | -78.91543 | 11980 ft | 315 kts | 164° |
| 2026-04-26 21:40 | 36.31110 | -78.90929 | 11980 ft | 315 kts | 164° |
| 2026-04-26 21:40 | 36.28966 | -78.90309 | 11962 ft | 315 kts | 164° |
| 2026-04-26 21:40 | 36.26841 | -78.89694 | 11604 ft | 318 kts | 164° |
| 2026-04-26 21:40 | 36.24696 | -78.89075 | 11197 ft | 319 kts | 164° |
| 2026-04-26 21:41 | 36.24596 | -78.89047 | 11177 ft | 319 kts | 164° |
| 2026-04-26 21:41 | 36.24212 | -78.88936 | 11106 ft | 319 kts | 164° |
| 2026-04-26 21:41 | 36.24116 | -78.88908 | 11089 ft | 319 kts | 164° |
| 2026-04-26 21:41 | 36.23924 | -78.88854 | 11052 ft | 319 kts | 164° |
| 2026-04-26 21:42 | 36.21783 | -78.88254 | 10661 ft | 319 kts | 165° |
| 2026-04-26 21:42 | 36.19611 | -78.87653 | 10280 ft | 318 kts | 165° |
| 2026-04-26 21:42 | 36.17455 | -78.87056 | 9910 ft | 318 kts | 165° |
| 2026-04-26 21:42 | 36.15300 | -78.86459 | 9525 ft | 318 kts | 165° |
| 2026-04-26 21:43 | 36.13142 | -78.85862 | 9193 ft | 313 kts | 165° |
| 2026-04-26 21:43 | 36.11044 | -78.85283 | 8840 ft | 306 kts | 165° |
| 2026-04-26 21:43 | 36.09023 | -78.84724 | 8706 ft | 293 kts | 165° |
| 2026-04-26 21:43 | 36.07058 | -78.84180 | 8593 ft | 283 kts | 165° |
| 2026-04-26 21:44 | 36.05165 | -78.83736 | 8468 ft | 275 kts | 170° |
| 2026-04-26 21:44 | 36.03255 | -78.83476 | 8138 ft | 276 kts | 173° |
| 2026-04-26 21:44 | 36.01355 | -78.83259 | 7862 ft | 274 kts | 173° |
| 2026-04-26 21:44 | 35.99461 | -78.83048 | 7625 ft | 271 kts | 173° |
| 2026-04-26 21:45 | 35.97570 | -78.82914 | 7269 ft | 270 kts | 185° |
| 2026-04-26 21:45 | 35.95843 | -78.83706 | 6825 ft | 268 kts | 219° |
| 2026-04-26 21:45 | 35.94555 | -78.85282 | 6541 ft | 259 kts | 232° |
| 2026-04-26 21:45 | 35.93419 | -78.86965 | 6277 ft | 253 kts | 232° |
| 2026-04-26 21:46 | 35.92271 | -78.88604 | 6034 ft | 247 kts | 230° |
| 2026-04-26 21:46 | 35.91127 | -78.90135 | 5977 ft | 243 kts | 229° |
| 2026-04-26 21:46 | 35.89957 | -78.91652 | 5970 ft | 243 kts | 228° |
| 2026-04-26 21:46 | 35.88800 | -78.93132 | 5784 ft | 241 kts | 228° |
| 2026-04-26 21:47 | 35.87625 | -78.94630 | 5466 ft | 243 kts | 227° |
| 2026-04-26 21:47 | 35.86458 | -78.96112 | 5186 ft | 242 kts | 227° |
| 2026-04-26 21:47 | 35.85276 | -78.97609 | 4918 ft | 241 kts | 227° |
| 2026-04-26 21:47 | 35.84114 | -78.99078 | 4651 ft | 241 kts | 227° |
| 2026-04-26 21:48 | 35.82939 | -79.00563 | 4382 ft | 241 kts | 227° |
| 2026-04-26 21:48 | 35.81768 | -79.02042 | 4120 ft | 240 kts | 227° |
| 2026-04-26 21:48 | 35.80509 | -79.03353 | 3835 ft | 241 kts | 205° |
| 2026-04-26 21:48 | 35.78899 | -79.03793 | 3548 ft | 235 kts | 171° |
| 2026-04-26 21:49 | 35.77458 | -79.03235 | 3311 ft | 226 kts | 147° |
| 2026-04-26 21:49 | 35.76100 | -79.02229 | 3064 ft | 224 kts | 142° |
| 2026-04-26 21:49 | 35.74900 | -79.01051 | 2956 ft | 216 kts | 121° |
| 2026-04-26 21:49 | 35.74349 | -78.99435 | 3038 ft | 197 kts | 98° |
| 2026-04-26 21:50 | 35.74118 | -78.97844 | 2975 ft | 182 kts | 94° |
| 2026-04-26 21:50 | 35.74073 | -78.96831 | 2941 ft | 173 kts | 76° |
| 2026-04-26 21:50 | 35.74924 | -78.95267 | 2969 ft | 168 kts | 41° |
| 2026-04-26 21:50 | 35.75814 | -78.94350 | 2967 ft | 168 kts | 39° |
| 2026-04-26 21:51 | 35.76701 | -78.93398 | 2965 ft | 168 kts | 41° |
| 2026-04-26 21:51 | 35.77562 | -78.92406 | 2959 ft | 169 kts | 43° |
| 2026-04-26 21:51 | 35.78405 | -78.91390 | 2817 ft | 169 kts | 44° |
| 2026-04-26 21:51 | 35.79228 | -78.90377 | 2593 ft | 163 kts | 44° |
| 2026-04-26 21:52 | 35.79991 | -78.89429 | 2407 ft | 149 kts | 44° |
| 2026-04-26 21:52 | 35.80700 | -78.88547 | 2208 ft | 142 kts | 44° |
| 2026-04-26 21:52 | 35.81391 | -78.87688 | 2025 ft | 141 kts | 43° |
| 2026-04-26 21:52 | 35.82083 | -78.86830 | 1843 ft | 141 kts | 43° |
| 2026-04-26 21:53 | 35.82772 | -78.85976 | 1663 ft | 141 kts | 43° |
| 2026-04-26 21:53 | 35.83461 | -78.85122 | 1473 ft | 140 kts | 43° |
| 2026-04-26 21:53 | 35.84144 | -78.84280 | 1279 ft | 140 kts | 42° |
| 2026-04-26 21:53 | 35.84843 | -78.83433 | 1057 ft | 136 kts | 41° |
| 2026-04-26 21:54 | 35.85501 | -78.82607 | 900 ft | 136 kts | 44° |
| 2026-04-26 21:54 | 35.86151 | -78.81759 | 723 ft | 135 kts | 41° |
| 2026-04-26 21:54 | 35.86820 | -78.80957 | 560 ft | 134 kts | 40° |
| 2026-04-26 21:54 | 35.87484 | -78.80148 | 401 ft | 136 kts | 42° |
| 2026-04-26 21:55 | 35.88108 | -78.79385 | 380 ft | 108 kts | 46° |
| 2026-04-26 21:55 | 35.88504 | -78.78889 | 394 ft | 39 kts | 46° |
| 2026-04-26 21:55 | 35.88569 | -78.78736 | 398 ft | 11 kts | 98° |
| 2026-04-26 21:55 | 35.88524 | -78.78683 | 401 ft | 8 kts | 191° |
| 2026-04-26 21:56 | 35.88475 | -78.78733 | 400 ft | 10 kts | 225° |
| 2026-04-26 21:56 | 35.88416 | -78.78805 | 399 ft | 12 kts | 225° |
| 2026-04-26 21:56 | 35.88348 | -78.78891 | 397 ft | 15 kts | 225° |
| 2026-04-26 21:56 | 35.88270 | -78.78986 | 395 ft | 16 kts | 225° |
| 2026-04-26 21:57 | 35.88182 | -78.79093 | 392 ft | 18 kts | 225° |
| 2026-04-26 21:57 | 35.88087 | -78.79211 | 388 ft | 20 kts | 225° |
| 2026-04-26 21:57 | 35.88010 | -78.79288 | 388 ft | 10 kts | 178° |
| 2026-04-26 21:57 | 35.87941 | -78.79293 | 389 ft | 10 kts | 216° |
| 2026-04-26 21:58 | 35.87888 | -78.79353 | 387 ft | 3 kts | 208° |
| 2026-04-26 21:58 | 35.87878 | -78.79347 | 388 ft | 1 kts | 141° |
| 2026-04-26 21:58 | 35.87870 | -78.79340 | 388 ft | 2 kts | 141° |
| 2026-04-26 21:58 | 35.87862 | -78.79330 | 389 ft | 0 kts | 133° |
| 2026-04-26 21:59 | 35.87855 | -78.79321 | 389 ft | 2 kts | 134° |
| 2026-04-26 21:59 | 35.87847 | -78.79311 | 390 ft | 0 kts | 134° |
| 2026-04-26 21:59 | 35.87846 | -78.79311 | 390 ft | 0 kts | 134° |